createdAt,value
2019-04-07T00:03:50.595Z,4.47
2019-04-07T00:08:54.516Z,8.58
2019-04-07T00:13:57.994Z,4.65
2019-04-07T00:19:01.581Z,4.12
2019-04-07T00:24:05.750Z,4.80
2019-04-07T00:29:09.735Z,4.17
2019-04-07T00:34:13.244Z,4.67
2019-04-07T00:39:16.868Z,5.12
2019-04-07T00:44:20.440Z,4.42
2019-04-07T00:49:23.901Z,3.90
2019-04-07T00:54:28.029Z,4.73
2019-04-07T00:59:32.002Z,3.90
2019-04-07T01:04:35.531Z,4.12
2019-04-07T01:09:39.863Z,4.30
2019-04-07T01:14:43.461Z,4.10
2019-04-07T01:19:47.045Z,5.20
2019-04-07T01:24:50.651Z,3.83
2019-04-07T01:29:54.200Z,3.90
2019-04-07T01:34:58.085Z,4.25
2019-04-07T01:40:01.653Z,4.20
2019-04-07T01:45:11.557Z,5.22
2019-04-07T01:50:17.357Z,4.93
2019-04-07T01:55:25.767Z,3.47
2019-04-07T02:00:48.343Z,3.30
2019-04-07T02:06:01.510Z,3.70
2019-04-07T02:11:09.431Z,3.55
2019-04-07T02:16:23.541Z,3.42
2019-04-07T02:21:34.944Z,3.75
2019-04-07T02:26:43.285Z,4.03
2019-04-07T02:31:48.392Z,4.27
2019-04-07T02:36:56.107Z,3.53
2019-04-07T02:42:01.365Z,3.80
2019-04-07T02:47:24.469Z,4.75
2019-04-07T02:52:46.153Z,3.58
2019-04-07T02:58:07.811Z,4.17
2019-04-07T03:03:25.066Z,4.17
2019-04-07T03:08:39.657Z,3.67
2019-04-07T03:13:54.435Z,2.98
2019-04-07T03:19:00.171Z,3.52
2019-04-07T03:24:08.117Z,3.42
2019-04-07T03:29:14.064Z,3.55
2019-04-07T03:34:20.794Z,3.87
2019-04-07T03:39:28.791Z,3.93
2019-04-07T03:44:45.734Z,2.77
2019-04-07T03:49:51.008Z,3.83
2019-04-07T03:55:15.249Z,3.40
2019-04-07T04:00:40.938Z,3.63
2019-04-07T04:05:52.189Z,3.02
2019-04-07T04:10:56.642Z,3.25
2019-04-07T04:16:02.924Z,3.15
2019-04-07T04:21:07.031Z,3.17
2019-04-07T04:26:10.523Z,3.70
2019-04-07T04:31:14.118Z,2.77
2019-04-07T04:36:17.817Z,3.37
2019-04-07T04:41:21.255Z,3.25
2019-04-07T04:46:24.721Z,3.33
2019-04-07T04:51:28.250Z,3.25
2019-04-07T04:56:31.651Z,3.22
2019-04-07T05:01:36.095Z,3.72
2019-04-07T05:06:39.646Z,2.90
2019-04-07T05:11:43.100Z,3.00
2019-04-07T05:16:46.560Z,2.80
2019-04-07T05:21:50.449Z,2.72
2019-04-07T05:26:54.248Z,3.80
2019-04-07T05:31:57.810Z,3.00
2019-04-07T05:37:01.325Z,3.00
2019-04-07T05:42:04.902Z,2.65
2019-04-07T05:47:10.845Z,2.77
2019-04-07T05:52:13.990Z,2.45
2019-04-07T05:57:17.539Z,2.62
2019-04-07T06:02:21.000Z,3.20
2019-04-07T06:07:28.807Z,2.65
2019-04-07T06:12:29.655Z,3.05
2019-04-07T06:17:33.133Z,2.47
2019-04-07T06:22:37.030Z,2.62
2019-04-07T06:27:40.569Z,2.55
2019-04-07T06:32:44.658Z,2.70
2019-04-07T06:37:48.226Z,3.35
2019-04-07T06:42:51.685Z,3.33
2019-04-07T06:47:56.795Z,2.80
2019-04-07T06:53:05.363Z,2.42
2019-04-07T06:58:11.156Z,2.98
2019-04-07T07:03:16.641Z,9.58
2019-04-07T07:08:45.071Z,19.15
2019-04-07T07:14:00.667Z,17.20
2019-04-07T07:19:15.156Z,17.55
2019-04-07T07:24:24.985Z,15.98
2019-04-07T07:29:26.522Z,14.25
2019-04-07T07:34:29.468Z,14.23
2019-04-07T07:39:32.913Z,12.47
2019-04-07T07:44:38.380Z,12.30
2019-04-07T07:49:42.455Z,13.48
2019-04-07T07:54:46.400Z,11.25
2019-04-07T07:59:49.914Z,10.63
2019-04-07T08:04:57.311Z,10.60
2019-04-07T08:09:58.603Z,12.65
2019-04-07T08:15:02.982Z,9.40
2019-04-07T08:20:08.377Z,8.00
2019-04-07T08:25:11.986Z,7.60
2019-04-07T08:30:16.248Z,9.48
2019-04-07T08:35:19.824Z,7.92
2019-04-07T08:40:23.302Z,7.12
2019-04-07T08:45:29.980Z,6.80
2019-04-07T08:50:32.139Z,7.20
2019-04-07T08:55:35.620Z,6.28
2019-04-07T09:00:41.587Z,6.42
2019-04-07T09:05:45.529Z,7.15
2019-04-07T09:10:53.809Z,6.90
2019-04-07T09:16:05.458Z,7.28
2019-04-07T09:21:19.929Z,6.28
2019-04-07T09:26:27.172Z,7.37
2019-04-07T09:31:32.583Z,7.15
2019-04-07T09:36:48.479Z,9.53
2019-04-07T09:41:59.977Z,5.78
2019-04-07T09:47:19.928Z,8.63
2019-04-07T09:52:37.234Z,20.92
2019-04-07T09:57:59.220Z,20.50
2019-04-07T10:03:07.729Z,19.77
2019-04-07T10:08:29.313Z,17.12
2019-04-07T10:13:40.968Z,19.82
2019-04-07T10:18:49.267Z,23.22
2019-04-07T10:24:00.738Z,18.73
2019-04-07T10:29:18.683Z,21.77
2019-04-07T10:34:24.872Z,15.48
2019-04-07T10:39:33.699Z,13.08
2019-04-07T10:44:42.341Z,15.88
2019-04-07T10:49:57.872Z,16.95
2019-04-07T10:54:54.941Z,13.93
2019-04-07T11:00:03.398Z,15.95
2019-04-07T11:05:21.745Z,14.87
2019-04-07T11:10:34.604Z,17.52
2019-04-07T11:15:51.980Z,12.65
2019-04-07T11:21:09.821Z,12.07
2019-04-07T11:26:31.976Z,13.80
2019-04-07T11:31:37.167Z,13.05
2019-04-07T11:36:58.456Z,12.30
2019-04-07T11:42:06.516Z,12.78
2019-04-07T11:47:11.636Z,15.18
2019-04-07T11:52:22.437Z,13.95
2019-04-07T11:57:33.662Z,11.80
2019-04-07T12:02:45.508Z,16.17
2019-04-07T12:08:07.235Z,10.10
2019-04-07T12:13:27.214Z,12.90
2019-04-07T12:18:38.682Z,12.35
2019-04-07T12:23:46.577Z,12.75
2019-04-07T12:28:52.429Z,12.05
2019-04-07T12:34:09.531Z,12.70
2019-04-07T12:39:31.591Z,12.13
2019-04-07T12:44:36.484Z,12.78
2019-04-07T12:49:44.476Z,10.63
2019-04-07T12:54:57.528Z,17.73
2019-04-07T13:00:02.657Z,13.13
2019-04-07T13:05:21.621Z,9.90
2019-04-07T13:10:30.231Z,12.07
2019-04-07T13:15:38.942Z,9.90
2019-04-07T13:20:53.364Z,11.93
2019-04-07T13:26:04.629Z,11.57
2019-04-07T13:31:10.152Z,8.83
2019-04-07T13:36:25.223Z,9.80
2019-04-07T13:41:41.661Z,8.80
2019-04-07T13:46:56.428Z,9.05
2019-04-07T13:52:02.410Z,12.10
2019-04-07T13:57:07.723Z,11.12
2019-04-07T14:02:31.581Z,10.18
2019-04-07T14:07:42.798Z,9.57
2019-04-07T14:12:58.656Z,11.57
2019-04-07T14:18:20.162Z,10.48
2019-04-07T14:23:38.413Z,11.53
2019-04-07T14:29:03.059Z,10.45
2019-04-07T14:34:27.268Z,11.75
2019-04-07T14:39:35.868Z,10.23
2019-04-07T14:44:51.099Z,9.47
2019-04-07T14:50:02.135Z,11.40
2019-04-07T14:55:10.995Z,9.08
2019-04-07T15:00:18.337Z,12.58
2019-04-07T15:05:32.831Z,11.07
2019-04-07T15:10:41.875Z,12.43
2019-04-07T15:15:45.412Z,11.18
2019-04-07T15:20:48.876Z,11.78
2019-04-07T15:25:52.793Z,10.15
2019-04-07T15:30:56.830Z,14.45
2019-04-07T15:36:00.431Z,11.10
2019-04-07T15:41:07.746Z,9.55
2019-04-07T15:46:09.517Z,10.63
2019-04-07T15:51:13.590Z,11.22
2019-04-07T15:56:19.395Z,10.63
2019-04-07T16:01:23.793Z,9.75
2019-04-07T16:06:28.020Z,12.07
2019-04-07T16:11:31.495Z,9.33
2019-04-07T16:16:34.957Z,11.18
2019-04-07T16:21:40.854Z,10.95
2019-04-07T16:26:44.374Z,10.10
2019-04-07T16:31:48.872Z,11.67
2019-04-07T16:36:55.111Z,16.23
2019-04-07T16:41:57.902Z,13.18
2019-04-07T16:47:03.956Z,11.35
2019-04-07T16:52:06.827Z,11.48
2019-04-07T16:57:10.562Z,9.70
2019-04-07T17:02:15.629Z,11.63
2019-04-07T17:07:21.100Z,12.68
2019-04-07T17:12:24.646Z,10.32
2019-04-07T17:17:28.328Z,10.05
2019-04-07T17:22:32.587Z,10.50
2019-04-07T17:27:36.845Z,10.75
2019-04-07T17:32:40.567Z,9.88
2019-04-07T17:37:43.969Z,9.18
2019-04-07T17:42:50.790Z,12.00
2019-04-07T17:47:57.303Z,13.60
2019-04-07T17:53:06.432Z,9.80
2019-04-07T17:58:27.769Z,9.85
2019-04-07T18:03:39.103Z,8.38
2019-04-07T18:08:45.320Z,8.80
2019-04-07T18:13:57.689Z,10.32
2019-04-07T18:19:01.642Z,10.43
2019-04-07T18:24:18.715Z,7.95
2019-04-07T18:29:29.649Z,10.00
2019-04-07T18:34:36.622Z,8.38
2019-04-07T18:39:55.041Z,10.10
2019-04-07T18:45:13.804Z,10.35
2019-04-07T18:50:22.018Z,10.63
2019-04-07T18:55:27.679Z,9.75
2019-04-07T19:00:45.762Z,8.10
2019-04-07T19:05:54.249Z,10.45
2019-04-07T19:11:14.868Z,8.68
2019-04-07T19:16:19.105Z,7.85
2019-04-07T19:21:31.526Z,9.38
2019-04-07T19:26:39.357Z,8.40
2019-04-07T19:31:50.463Z,8.28
2019-04-07T19:37:02.481Z,8.33
2019-04-07T19:42:09.040Z,8.78
2019-04-07T19:47:26.444Z,7.85
2019-04-07T19:52:49.894Z,7.35
2019-04-07T19:58:04.117Z,8.25
2019-04-07T20:03:28.432Z,7.55
2019-04-07T20:08:42.454Z,10.00
2019-04-07T20:13:47.551Z,7.97
2019-04-07T20:19:04.558Z,7.65
2019-04-07T20:24:13.145Z,8.28
2019-04-07T20:29:23.764Z,8.43
2019-04-07T20:34:33.995Z,7.50
2019-04-07T20:39:41.258Z,6.97
2019-04-07T20:44:59.940Z,6.83
2019-04-07T20:50:12.987Z,7.45
2019-04-07T20:55:21.468Z,7.53
2019-04-07T21:00:30.635Z,8.13
2019-04-07T21:05:48.283Z,6.95
2019-04-07T21:10:59.553Z,7.55
2019-04-07T21:16:14.391Z,7.33
2019-04-07T21:21:22.237Z,7.72
2019-04-07T21:26:33.529Z,7.65
2019-04-07T21:31:46.760Z,7.58
2019-04-07T21:37:00.473Z,7.42
2019-04-07T21:42:22.415Z,7.65
2019-04-07T21:47:44.108Z,8.15
2019-04-07T21:52:55.677Z,6.58
2019-04-07T21:58:07.158Z,7.95
2019-04-07T22:03:15.793Z,6.90
2019-04-07T22:08:21.911Z,6.05
2019-04-07T22:13:25.841Z,6.10
2019-04-07T22:18:29.343Z,5.90
2019-04-07T22:23:33.707Z,6.33
2019-04-07T22:28:37.462Z,5.85
2019-04-07T22:33:40.938Z,7.15
2019-04-07T22:38:44.462Z,6.67
2019-04-07T22:43:51.422Z,6.05
2019-04-07T22:48:55.183Z,5.37
2019-04-07T22:53:57.749Z,5.53
2019-04-07T22:59:02.184Z,6.28
2019-04-07T23:04:05.823Z,5.83
2019-04-07T23:09:09.948Z,7.15
2019-04-07T23:14:13.637Z,5.80
2019-04-07T23:19:17.088Z,5.20
2019-04-07T23:24:21.288Z,6.03
2019-04-07T23:29:24.818Z,5.87
2019-04-07T23:34:28.292Z,4.60
2019-04-07T23:39:31.764Z,6.10
2019-04-07T23:44:35.286Z,5.62
2019-04-07T23:49:38.695Z,6.42
2019-04-07T23:54:42.152Z,5.03
2019-04-07T23:59:47.025Z,5.40
